Time;durP1;ratioP1;P1;durP2;ratioP2;P2;SDS_P1;SDS_P2;PMS_P1;PMS_P2;Temp;Humidity;BMP_temperature;BMP_pressure;BME280_temperature;BME280_humidity;BME280_pressure;Samples;Min_cycle;Max_cycle;Signal;HPM_P1;HPM_P2
2022/08/30 00:01:01;;;;;;;5.03;2.40;;;;;;;11.08;80.48;99044.03;4236475;27;19915;-71
2022/08/30 00:01:33;;;;;;;5.60;2.35;;;;;;;11.07;80.22;99044.41;4236291;27;20440;-71
2022/08/30 00:03:39;;;;;;;5.57;2.50;;;;;;;11.00;80.42;99041.50;4236693;27;20106;-71
2022/08/30 00:05:42;;;;;;;4.70;2.95;;;;;;;10.95;79.29;99045.41;4236622;27;20458;-71
2022/08/30 00:07:42;;;;;;;3.67;2.50;;;;;;;10.94;79.31;99049.34;4236645;27;20062;-71
2022/08/30 00:09:42;;;;;;;6.40;2.97;;;;;;;10.85;77.81;99046.81;4235872;27;20047;-71
2022/08/30 00:11:43;;;;;;;7.07;2.83;;;;;;;10.81;76.65;99045.91;4236903;27;20045;-71
2022/08/30 00:13:46;;;;;;;6.00;2.75;;;;;;;10.75;76.39;99041.03;4236726;27;20085;-71
2022/08/30 00:15:47;;;;;;;6.43;2.60;;;;;;;10.73;76.01;99043.38;4234926;27;20126;-71
2022/08/30 00:17:48;;;;;;;7.03;2.65;;;;;;;10.69;76.04;99048.84;4236019;27;20463;-71
2022/08/30 00:19:48;;;;;;;6.43;2.60;;;;;;;10.60;76.79;99059.34;4235644;27;20184;-71
2022/08/30 00:21:49;;;;;;;5.03;2.45;;;;;;;10.58;76.65;99048.63;4236647;27;20430;-71
2022/08/30 00:23:49;;;;;;;10.10;2.50;;;;;;;10.62;76.72;99049.50;4236334;27;20047;-71
2022/08/30 00:25:50;;;;;;;3.63;2.47;;;;;;;10.59;76.38;99044.72;4236322;27;20290;-71
2022/08/30 00:27:50;;;;;;;5.30;2.72;;;;;;;10.58;76.83;99047.81;4235480;27;20051;-71
2022/08/30 00:29:51;;;;;;;8.77;2.78;;;;;;;10.55;76.61;99048.56;4235503;27;20054;-71
2022/08/30 00:31:51;;;;;;;10.63;3.10;;;;;;;10.49;77.08;99045.28;4234443;27;20059;-71
2022/08/30 00:33:51;;;;;;;8.25;2.45;;;;;;;10.45;76.71;99038.88;4236319;27;20130;-71
2022/08/30 00:35:52;;;;;;;8.88;3.53;;;;;;;10.44;77.03;99051.09;4236184;27;20043;-71
2022/08/30 00:37:52;;;;;;;4.80;2.65;;;;;;;10.43;76.96;99049.50;4236968;27;20047;-71
2022/08/30 00:39:52;;;;;;;7.60;2.72;;;;;;;10.40;76.69;99044.69;4235955;27;20896;-71
2022/08/30 00:41:53;;;;;;;5.50;2.40;;;;;;;10.34;77.54;99038.66;4236183;27;20135;-71
2022/08/30 00:43:53;;;;;;;4.80;2.85;;;;;;;10.33;77.09;99044.53;4236051;27;20051;-71
2022/08/30 00:45:54;;;;;;;8.73;3.38;;;;;;;10.30;76.50;99040.53;4236240;27;20527;-71
2022/08/30 00:47:55;;;;;;;10.85;3.15;;;;;;;10.27;77.29;99046.81;4236398;27;20047;-71
2022/08/30 00:49:56;;;;;;;3.67;2.13;;;;;;;10.30;76.05;99040.53;4235751;27;20051;-71
2022/08/30 00:51:57;;;;;;;9.05;3.10;;;;;;;10.27;76.43;99043.22;4235958;27;20491;-71
2022/08/30 00:53:58;;;;;;;6.47;2.30;;;;;;;10.24;77.29;99039.22;4236332;27;20398;-71
2022/08/30 00:56:00;;;;;;;7.57;2.50;;;;;;;10.21;77.53;99039.13;4236559;27;20054;-71
2022/08/30 00:58:04;;;;;;;5.90;2.60;;;;;;;10.25;77.33;99040.00;4236047;27;20047;-71
2022/08/30 01:00:06;;;;;;;7.43;2.75;;;;;;;10.21;77.96;99048.22;4235286;27;20435;-71
2022/08/30 01:02:06;;;;;;;4.63;2.60;;;;;;;10.09;79.04;99049.16;4235293;28;20568;-71
2022/08/30 01:04:08;;;;;;;5.65;2.00;;;;;;;10.02;79.00;99048.97;4235760;28;20284;-71
2022/08/30 01:06:09;;;;;;;8.90;2.35;;;;;;;10.01;78.52;99047.38;4235567;28;20034;-71
2022/08/30 01:08:09;;;;;;;3.83;2.67;;;;;;;9.99;78.78;99046.13;4235654;28;20383;-71
2022/08/30 01:10:13;;;;;;;4.97;2.15;;;;;;;10.00;78.47;99042.19;4235996;28;20503;-71
2022/08/30 01:12:14;;;;;;;4.65;2.60;;;;;;;9.99;78.13;99049.69;4237277;27;20083;-71
2022/08/30 01:14:16;;;;;;;5.13;2.35;;;;;;;9.97;77.85;99054.78;4239110;27;20419;-71
2022/08/30 01:16:20;;;;;;;5.17;2.50;;;;;;;9.95;78.58;99053.53;4238837;27;20031;-71
2022/08/30 01:18:21;;;;;;;6.80;3.03;;;;;;;9.92;79.36;99052.28;4238913;27;20433;-71
2022/08/30 01:21:00;;;;;;;5.30;2.45;;;;;;;10.00;78.82;99059.56;4239477;27;20092;-71
2022/08/30 01:23:14;;;;;;;4.97;2.30;;;;;;;9.94;79.68;99058.28;4232311;27;20071;-71
2022/08/30 01:25:23;;;;;;;5.80;2.63;;;;;;;9.82;80.50;99055.59;4239534;27;20043;-71
2022/08/30 01:27:27;;;;;;;6.22;2.78;;;;;;;9.74;80.25;99062.13;4238935;27;20361;-71
2022/08/30 01:29:28;;;;;;;4.22;2.42;;;;;;;9.66;80.76;99060.34;4238600;27;20100;-71
2022/08/30 01:31:28;;;;;;;4.60;2.15;;;;;;;9.60;80.97;99064.53;4239282;27;20491;-71
2022/08/30 01:33:29;;;;;;;4.55;2.45;;;;;;;9.56;80.91;99056.97;4239308;27;20390;-71
2022/08/30 01:35:43;;;;;;;6.13;2.70;;;;;;;9.56;81.53;99054.22;4239058;27;20058;-71
2022/08/30 01:37:44;;;;;;;7.15;2.13;;;;;;;9.52;81.53;99058.06;4238928;27;20432;-71
2022/08/30 01:39:45;;;;;;;3.28;2.20;;;;;;;9.50;81.30;99055.63;4238954;27;20039;-71
2022/08/30 01:41:46;;;;;;;5.60;2.60;;;;;;;9.52;81.70;99064.38;4239207;27;20051;-71
2022/08/30 01:43:47;;;;;;;3.83;2.17;;;;;;;9.49;81.93;99072.56;4238597;27;20081;-71
2022/08/30 01:45:47;;;;;;;6.43;2.42;;;;;;;9.46;82.34;99065.00;4238383;27;20047;-71
2022/08/30 01:47:49;;;;;;;5.40;2.20;;;;;;;9.41;83.00;99059.72;4239160;27;20225;-70
2022/08/30 01:49:50;;;;;;;5.53;2.55;;;;;;;9.37;82.77;99062.41;4237959;27;20031;-71
2022/08/30 01:51:50;;;;;;;4.00;2.30;;;;;;;9.33;83.11;99052.41;4238751;27;20062;-71
2022/08/30 01:53:51;;;;;;;5.35;2.63;;;;;;;9.32;82.86;99059.09;4238668;27;20108;-71
2022/08/30 01:55:51;;;;;;;9.75;2.63;;;;;;;9.28;81.93;99059.81;4238761;27;20088;-71
2022/08/30 01:57:52;;;;;;;4.35;2.47;;;;;;;9.29;81.81;99057.88;4238832;27;20090;-71
2022/08/30 01:59:52;;;;;;;4.95;2.53;;;;;;;9.25;82.37;99059.72;4237806;27;20072;-71
2022/08/30 02:01:53;;;;;;;8.52;3.10;;;;;;;9.30;82.04;99067.75;4238949;27;20046;-71
2022/08/30 02:03:55;;;;;;;10.07;2.50;;;;;;;9.31;82.29;99068.56;4238077;27;20039;-71
2022/08/30 02:05:55;;;;;;;5.28;2.47;;;;;;;9.33;82.00;99061.50;4238517;27;20039;-71
2022/08/30 02:07:56;;;;;;;5.95;2.33;;;;;;;9.42;81.47;99062.13;4238853;27;20051;-71
2022/08/30 02:09:56;;;;;;;7.57;2.83;;;;;;;9.44;82.55;99068.13;4237985;27;20047;-71
2022/08/30 02:11:57;;;;;;;5.88;2.90;;;;;;;9.42;83.47;99061.31;4237970;27;20498;-71
2022/08/30 02:13:58;;;;;;;7.40;2.63;;;;;;;9.42;83.20;99056.59;4237850;27;20486;-71
2022/08/30 02:15:58;;;;;;;6.80;2.92;;;;;;;9.44;83.19;99057.06;4238659;27;20455;-71
2022/08/30 02:17:59;;;;;;;5.70;3.15;;;;;;;9.42;82.85;99059.38;4238849;27;20498;-71
2022/08/30 02:20:00;;;;;;;6.57;2.75;;;;;;;9.39;82.66;99051.00;4236326;27;20864;-71
2022/08/30 02:22:10;;;;;;;4.28;2.90;;;;;;;9.38;82.33;99049.41;4238751;27;20035;-71
2022/08/30 02:24:10;;;;;;;5.78;2.95;;;;;;;9.46;82.01;99056.72;4236334;27;20050;-71
2022/08/30 02:26:11;;;;;;;5.22;3.10;;;;;;;9.50;82.81;99057.59;4238469;27;20359;-71
2022/08/30 02:28:14;;;;;;;8.18;3.08;;;;;;;9.49;82.91;99044.94;4237925;27;20190;-71
2022/08/30 02:30:14;;;;;;;6.65;2.97;;;;;;;9.61;81.49;99052.34;4237777;27;20126;-71
2022/08/30 02:32:15;;;;;;;8.95;3.20;;;;;;;9.65;81.42;99042.97;4238412;27;20130;-71
2022/08/30 02:34:15;;;;;;;6.80;2.95;;;;;;;9.69;81.87;99040.31;4237810;27;20027;-71
2022/08/30 02:36:17;;;;;;;13.93;3.72;;;;;;;9.60;82.18;99042.44;4239432;27;20034;-71
2022/08/30 02:38:17;;;;;;;6.63;3.13;;;;;;;9.63;81.33;99050.03;4237896;27;20035;-71
2022/08/30 02:40:20;;;;;;;8.45;3.13;;;;;;;9.57;82.23;99042.00;4237206;27;20023;-71
2022/08/30 02:42:21;;;;;;;8.25;3.25;;;;;;;9.60;81.79;99036.91;4237730;27;20126;-71
2022/08/30 02:44:21;;;;;;;9.43;3.78;;;;;;;9.55;82.22;99030.50;4237676;27;20079;-71
2022/08/30 02:46:21;;;;;;;8.15;3.05;;;;;;;9.62;82.78;99040.13;4238040;27;20062;-71
2022/08/30 02:48:23;;;;;;;7.82;3.28;;;;;;;9.63;82.07;99037.00;4237966;27;20031;-71
2022/08/30 02:50:24;;;;;;;8.13;3.50;;;;;;;9.64;81.35;99033.09;4238062;27;20046;-71
2022/08/30 02:52:25;;;;;;;6.45;3.00;;;;;;;9.62;82.81;99040.13;4237781;27;20110;-71
2022/08/30 02:54:25;;;;;;;5.85;3.25;;;;;;;9.61;83.55;99028.28;4237797;27;20075;-71
2022/08/30 02:56:27;;;;;;;5.95;2.80;;;;;;;9.56;83.18;99017.50;4237267;27;20490;-71
2022/08/30 02:58:27;;;;;;;8.25;3.38;;;;;;;9.58;81.92;99024.25;4236979;27;20033;-71
2022/08/30 03:00:28;;;;;;;5.45;3.17;;;;;;;9.59;81.25;99019.53;4237817;27;20036;-71
2022/08/30 03:02:29;;;;;;;8.95;2.95;;;;;;;9.66;81.39;99016.94;4238424;27;20070;-71
2022/08/30 03:04:29;;;;;;;8.45;3.20;;;;;;;9.65;81.77;99022.81;4237083;27;20166;-71
2022/08/30 03:06:30;;;;;;;10.18;3.65;;;;;;;9.64;82.03;99021.22;4237525;27;20044;-71
2022/08/30 03:08:31;;;;;;;5.50;3.00;;;;;;;9.64;81.80;99010.19;4237499;27;20047;-71
2022/08/30 03:10:31;;;;;;;5.82;2.70;;;;;;;9.69;81.58;99029.25;4237596;27;20422;-71
2022/08/30 03:12:32;;;;;;;5.05;2.72;;;;;;;9.69;82.18;99020.97;4237041;27;20043;-71
2022/08/30 03:14:35;;;;;;;7.50;3.00;;;;;;;9.60;82.40;99028.63;4237195;27;20043;-71
2022/08/30 03:16:38;;;;;;;5.50;3.08;;;;;;;9.46;83.43;99021.59;4237614;27;20487;-71
2022/08/30 03:18:38;;;;;;;5.43;2.83;;;;;;;9.29;84.07;99025.53;4236851;27;20299;-71
2022/08/30 03:20:40;;;;;;;7.03;3.13;;;;;;;9.27;84.32;99035.34;4237447;27;20150;-71
2022/08/30 03:22:41;;;;;;;4.70;2.70;;;;;;;9.24;82.75;99014.75;4237275;27;20293;-71
2022/08/30 03:24:41;;;;;;;9.70;2.80;;;;;;;9.12;84.48;99019.56;4237381;27;20430;-71
2022/08/30 03:26:41;;;;;;;7.07;3.10;;;;;;;9.01;84.79;99028.34;4236884;27;20218;-71
2022/08/30 03:28:42;;;;;;;7.25;3.30;;;;;;;8.95;84.49;99023.47;4236621;27;20036;-71
2022/08/30 03:30:42;;;;;;;6.25;3.17;;;;;;;8.85;85.85;99024.75;4235952;27;20548;-71
2022/08/30 03:32:43;;;;;;;9.73;3.00;;;;;;;8.78;85.67;99034.81;4237033;27;20038;-71
2022/08/30 03:34:44;;;;;;;7.95;3.17;;;;;;;8.69;86.90;99021.19;4236255;27;20038;-71
2022/08/30 03:36:44;;;;;;;10.85;3.55;;;;;;;8.66;88.46;99033.69;4237294;27;20039;-71
2022/08/30 03:38:44;;;;;;;6.93;2.97;;;;;;;8.61;89.35;99027.66;4236530;27;20555;-71
2022/08/30 03:40:45;;;;;;;5.55;3.42;;;;;;;8.58;90.20;99025.59;4235562;27;20822;-71
2022/08/30 03:42:46;;;;;;;5.72;3.40;;;;;;;8.56;90.72;99030.66;4235910;27;20031;-71
2022/08/30 03:44:46;;;;;;;3.92;2.42;;;;;;;8.55;91.45;99029.06;4236629;27;20039;-71
2022/08/30 03:46:47;;;;;;;7.15;2.83;;;;;;;8.53;92.07;99026.66;4236805;27;20122;-71
2022/08/30 03:48:47;;;;;;;4.22;2.58;;;;;;;8.49;91.93;99030.44;4233869;27;20079;-71
2022/08/30 03:50:48;;;;;;;4.20;2.53;;;;;;;8.48;92.44;99031.59;4236586;27;20686;-71
2022/08/30 03:52:48;;;;;;;6.43;2.97;;;;;;;8.45;91.78;99033.13;4236379;27;20271;-71
2022/08/30 03:54:48;;;;;;;6.53;3.08;;;;;;;8.44;91.95;99034.28;4236450;27;20036;-71
2022/08/30 03:56:49;;;;;;;5.10;3.00;;;;;;;8.43;91.26;99036.19;4236292;27;20125;-71
2022/08/30 03:58:50;;;;;;;5.95;3.10;;;;;;;8.46;88.75;99031.97;4236022;27;20039;-71
2022/08/30 04:00:50;;;;;;;7.40;2.50;;;;;;;8.48;88.14;99039.88;4236310;27;20086;-71
2022/08/30 04:02:50;;;;;;;9.88;3.50;;;;;;;8.44;88.66;99039.78;4235388;27;20126;-70
2022/08/30 04:04:51;;;;;;;5.25;2.97;;;;;;;8.40;89.43;99034.16;4236388;27;20470;-71
2022/08/30 04:06:51;;;;;;;5.05;2.75;;;;;;;8.37;89.16;99045.91;4235864;27;20370;-71
2022/08/30 04:08:52;;;;;;;5.80;3.10;;;;;;;8.36;89.58;99055.31;4235644;27;20032;-71
2022/08/30 04:10:53;;;;;;;10.70;3.70;;;;;;;8.37;90.52;99056.13;4235947;27;20039;-71
2022/08/30 04:12:53;;;;;;;13.75;3.97;;;;;;;8.37;91.56;99058.88;4235954;27;20550;-71
2022/08/30 04:14:54;;;;;;;8.45;2.88;;;;;;;8.38;91.41;99064.03;4235065;27;20081;-71
2022/08/30 04:16:54;;;;;;;5.47;3.28;;;;;;;8.43;91.08;99071.25;4235445;27;20482;-71
2022/08/30 04:18:54;;;;;;;10.10;3.13;;;;;;;8.43;91.89;99063.78;4235405;27;20064;-71
2022/08/30 04:20:55;;;;;;;8.10;3.45;;;;;;;8.44;92.33;99059.09;4235908;27;20119;-71
2022/08/30 04:22:55;;;;;;;6.72;3.38;;;;;;;8.46;92.42;99064.25;4235540;27;20191;-71
2022/08/30 04:24:55;;;;;;;8.32;3.58;;;;;;;8.49;93.12;99072.63;4235786;27;20062;-71
2022/08/30 04:26:55;;;;;;;11.23;3.47;;;;;;;8.51;93.67;99069.50;4235946;27;20121;-71
2022/08/30 04:28:57;;;;;;;9.02;2.72;;;;;;;8.57;93.05;99057.88;4234806;27;20133;-71
2022/08/30 04:30:57;;;;;;;8.10;4.15;;;;;;;8.59;93.02;99049.25;4235710;27;20332;-71
2022/08/30 04:32:58;;;;;;;6.07;3.33;;;;;;;8.57;92.76;99049.59;4234695;27;20120;-71
2022/08/30 04:34:58;;;;;;;8.68;3.75;;;;;;;8.59;92.83;99052.00;4234328;27;20461;-71
2022/08/30 04:36:59;;;;;;;11.18;3.40;;;;;;;8.56;92.99;99059.03;4236019;27;20046;-71
2022/08/30 04:38:59;;;;;;;8.23;3.28;;;;;;;8.54;93.21;99057.78;4235957;27;20106;-70
2022/08/30 04:40:59;;;;;;;8.55;3.53;;;;;;;8.49;92.65;99061.59;4236121;27;20078;-71
2022/08/30 04:43:00;;;;;;;8.60;3.50;;;;;;;8.39;91.79;99060.13;4235824;27;20039;-71
2022/08/30 04:45:06;;;;;;;8.30;3.33;;;;;;;8.33;91.49;99060.69;4235862;27;20485;-70
2022/08/30 04:47:08;;;;;;;11.30;4.18;;;;;;;8.27;91.10;99060.13;4233793;27;20422;-70
2022/08/30 04:49:09;;;;;;;7.18;2.97;;;;;;;8.21;91.13;99067.03;4235543;27;20074;-70
2022/08/30 04:51:16;;;;;;;6.22;3.63;;;;;;;8.17;90.91;99068.88;4235756;27;20101;-70
2022/08/30 04:53:17;;;;;;;6.15;3.30;;;;;;;8.06;90.04;99076.03;4232967;27;20084;-70
2022/08/30 04:55:17;;;;;;;8.13;3.60;;;;;;;7.99;90.25;99067.53;4234989;27;20580;-70
2022/08/30 04:57:18;;;;;;;10.73;3.17;;;;;;;7.94;89.87;99073.25;4235929;27;20055;-70
2022/08/30 04:59:18;;;;;;;8.25;3.90;;;;;;;7.91;89.66;99065.69;4235327;27;20078;-70
2022/08/30 05:01:22;;;;;;;4.72;3.15;;;;;;;7.88;89.52;99073.53;4233608;28;20039;-70
2022/08/30 05:03:22;;;;;;;7.60;3.47;;;;;;;7.88;89.60;99069.97;4148364;27;20119;-70
2022/08/30 05:05:41;;;;;;;6.25;3.13;;;;;;;7.89;89.28;99069.59;4219296;28;20602;-70
2022/08/30 05:07:41;;;;;;;8.20;3.58;;;;;;;7.96;89.36;99076.50;4234284;28;20158;-70
2022/08/30 05:09:41;;;;;;;7.68;2.90;;;;;;;8.04;88.17;99078.34;4235352;28;20083;-70
2022/08/30 05:11:42;;;;;;;8.75;3.38;;;;;;;8.12;87.94;99072.69;4235854;28;20454;-70
2022/08/30 05:13:43;;;;;;;10.88;3.97;;;;;;;8.25;88.93;99084.47;4235890;28;20780;-70
2022/08/30 05:15:44;;;;;;;5.82;3.40;;;;;;;8.28;88.64;99086.56;4235813;28;20287;-70
2022/08/30 05:17:44;;;;;;;7.78;3.78;;;;;;;8.31;88.60;99099.63;4234703;28;20046;-70
2022/08/30 05:19:45;;;;;;;7.30;3.70;;;;;;;8.37;89.02;99101.03;4216535;28;20050;-70
2022/08/30 05:21:45;;;;;;;8.90;3.50;;;;;;;8.44;89.22;99097.69;4234871;28;20059;-70
2022/08/30 05:23:46;;;;;;;6.38;3.40;;;;;;;8.51;88.25;99097.88;4233838;28;20413;-70
2022/08/30 05:25:46;;;;;;;8.00;4.00;;;;;;;8.60;87.76;99103.25;4233888;28;20526;-70
2022/08/30 05:27:47;;;;;;;11.57;3.58;;;;;;;8.63;87.67;99103.38;4235498;28;20046;-70
2022/08/30 05:29:47;;;;;;;7.85;3.55;;;;;;;8.67;87.79;99107.03;4235569;28;20035;-70
2022/08/30 05:31:48;;;;;;;8.45;3.33;;;;;;;8.73;87.15;99097.34;4233379;28;20050;-70
2022/08/30 05:33:50;;;;;;;6.00;3.15;;;;;;;8.84;86.34;99099.59;4235143;28;20047;-71
2022/08/30 05:35:50;;;;;;;5.47;3.17;;;;;;;8.89;85.68;99093.84;4233408;28;20490;-70
2022/08/30 05:37:50;;;;;;;6.03;3.30;;;;;;;8.98;85.67;99095.28;4234016;28;20071;-70
2022/08/30 05:39:51;;;;;;;8.38;3.65;;;;;;;9.06;85.56;99101.81;4234800;28;20046;-70
2022/08/30 05:41:56;;;;;;;7.38;3.45;;;;;;;9.10;85.58;99102.72;4235430;28;20055;-70
2022/08/30 05:43:59;;;;;;;6.25;3.33;;;;;;;9.18;84.94;99104.50;4235952;28;20089;-70
2022/08/30 05:46:09;;;;;;;7.60;3.63;;;;;;;9.28;83.96;99105.97;4236489;28;20621;-70
2022/08/30 05:48:09;;;;;;;5.03;3.20;;;;;;;9.40;84.34;99102.31;4235830;28;20129;-71
2022/08/30 05:50:09;;;;;;;5.25;3.13;;;;;;;9.48;84.81;99106.88;4235661;28;20091;-71
2022/08/30 05:52:14;;;;;;;7.68;3.22;;;;;;;9.55;84.86;99113.38;4235458;28;20027;-71
2022/08/30 05:54:15;;;;;;;7.95;3.00;;;;;;;9.62;84.82;99106.44;4235782;28;20039;-71
2022/08/30 05:56:19;;;;;;;7.63;3.00;;;;;;;9.72;83.81;99106.69;4235996;28;20072;-71
2022/08/30 05:58:19;;;;;;;5.63;4.07;;;;;;;9.83;83.43;99106.94;4237329;27;20421;-70
2022/08/30 06:00:20;;;;;;;6.57;3.63;;;;;;;9.94;84.25;99108.03;4239239;27;20019;-71
2022/08/30 06:02:20;;;;;;;7.30;3.95;;;;;;;10.02;85.30;99103.47;4239029;27;20151;-71
2022/08/30 06:04:20;;;;;;;7.40;3.88;;;;;;;10.08;85.95;99096.47;4239034;27;20094;-71
2022/08/30 06:06:22;;;;;;;8.07;3.45;;;;;;;10.14;85.30;99103.34;4238597;27;20499;-71
2022/08/30 06:08:22;;;;;;;8.30;4.25;;;;;;;10.19;85.13;99099.50;4238286;27;20042;-70
2022/08/30 06:10:22;;;;;;;8.38;3.38;;;;;;;10.26;85.35;99096.91;4239021;27;20031;-71
2022/08/30 06:12:23;;;;;;;7.30;3.58;;;;;;;10.30;85.10;99097.81;4239236;27;20356;-70
2022/08/30 06:14:23;;;;;;;10.07;4.00;;;;;;;10.36;85.73;99096.38;4238777;27;20410;-71
2022/08/30 06:16:26;;;;;;;8.65;3.60;;;;;;;10.43;85.41;99095.75;4239148;27;20735;-71
2022/08/30 06:18:26;;;;;;;3.80;2.90;;;;;;;10.50;85.28;99104.97;4238538;27;20039;-71
2022/08/30 06:20:27;;;;;;;9.65;3.60;;;;;;;10.55;85.19;99093.63;4238992;27;20049;-71
2022/08/30 06:22:27;;;;;;;5.68;3.05;;;;;;;10.62;85.51;99104.03;4238894;27;20038;-71
2022/08/30 06:24:27;;;;;;;5.00;3.25;;;;;;;10.71;85.45;99109.38;4238301;27;20042;-71
2022/08/30 06:26:28;;;;;;;5.88;3.05;;;;;;;10.77;84.62;99111.50;4239234;27;20047;-71
2022/08/30 06:28:29;;;;;;;6.63;3.30;;;;;;;10.85;84.73;99109.66;4237796;27;20031;-71
2022/08/30 06:30:29;;;;;;;9.68;4.03;;;;;;;10.91;83.37;99106.22;4238699;27;20035;-71
2022/08/30 06:32:29;;;;;;;5.47;3.50;;;;;;;10.99;83.64;99109.94;4238959;27;20051;-71
2022/08/30 06:34:30;;;;;;;10.55;3.72;;;;;;;11.10;85.60;99108.19;4238408;27;20047;-71
2022/08/30 06:36:31;;;;;;;8.00;4.57;;;;;;;11.18;85.78;99109.94;4238110;27;20035;-71
2022/08/30 06:38:31;;;;;;;12.68;4.65;;;;;;;11.30;85.90;99117.28;4238568;27;20360;-71
2022/08/30 06:40:32;;;;;;;11.60;4.32;;;;;;;11.38;85.51;99123.75;4238625;27;20046;-71
2022/08/30 06:42:32;;;;;;;8.80;4.03;;;;;;;11.47;85.43;99118.75;4238744;27;20035;-71
2022/08/30 06:44:33;;;;;;;11.70;4.45;;;;;;;11.53;84.96;99115.31;4238295;27;20044;-71
2022/08/30 06:46:37;;;;;;;8.10;4.70;;;;;;;11.62;84.39;99122.59;4238422;27;20167;-71
2022/08/30 06:48:37;;;;;;;7.47;4.70;;;;;;;11.70;84.38;99119.56;4237987;27;20265;-71
2022/08/30 06:50:37;;;;;;;8.05;4.32;;;;;;;11.77;83.42;99107.81;4238149;27;20075;-71
2022/08/30 06:52:41;;;;;;;8.45;3.42;;;;;;;11.86;81.85;99115.91;4238500;27;20054;-71
2022/08/30 06:54:41;;;;;;;5.63;3.58;;;;;;;11.92;81.96;99108.88;4238309;27;20054;-71
2022/08/30 06:56:41;;;;;;;4.80;3.65;;;;;;;12.00;82.02;99105.06;4238571;27;20467;-71
2022/08/30 06:58:43;;;;;;;6.93;3.70;;;;;;;12.08;81.88;99109.50;4237597;27;20042;-71
2022/08/30 07:00:43;;;;;;;6.90;3.53;;;;;;;12.17;81.04;99112.03;4238638;27;20830;-71
2022/08/30 07:02:44;;;;;;;6.55;3.92;;;;;;;12.27;80.23;99114.16;4238762;27;20035;-71
2022/08/30 07:04:44;;;;;;;7.68;4.15;;;;;;;12.36;80.39;99114.69;4237706;27;20375;-71
2022/08/30 07:06:44;;;;;;;6.53;4.25;;;;;;;12.43;80.45;99114.00;4237900;27;20383;-71
2022/08/30 07:08:49;;;;;;;7.22;3.95;;;;;;;12.54;80.29;99112.16;4237873;27;20455;-71
2022/08/30 07:10:53;;;;;;;7.82;4.28;;;;;;;12.64;79.05;99114.28;4236437;27;20597;-71
2022/08/30 07:12:53;;;;;;;6.85;3.90;;;;;;;12.73;80.27;99111.22;4237995;27;20043;-71
2022/08/30 07:14:54;;;;;;;6.35;3.83;;;;;;;12.81;79.02;99107.34;4238239;27;20348;-71
2022/08/30 07:16:54;;;;;;;5.30;3.92;;;;;;;12.91;79.70;99107.50;4238558;27;20490;-71
2022/08/30 07:18:57;;;;;;;8.20;4.78;;;;;;;13.02;79.40;99112.38;4237197;27;20130;-71
2022/08/30 07:21:04;;;;;;;6.93;4.03;;;;;;;13.13;79.11;99116.88;4238051;27;20423;-71
2022/08/30 07:23:05;;;;;;;5.57;3.65;;;;;;;13.19;78.36;99120.94;4236513;27;20491;-71
2022/08/30 07:25:05;;;;;;;6.32;3.50;;;;;;;13.28;77.82;99114.28;4237736;27;20095;-71
2022/08/30 07:27:06;;;;;;;7.93;3.78;;;;;;;13.37;77.66;99131.47;4238134;27;20081;-71
2022/08/30 07:29:07;;;;;;;6.75;3.80;;;;;;;13.45;77.02;99122.00;4237069;27;20071;-71
2022/08/30 07:31:09;;;;;;;6.38;4.13;;;;;;;13.56;77.33;99119.34;4237618;27;20061;-71
2022/08/30 07:33:09;;;;;;;7.05;3.85;;;;;;;13.64;77.20;99121.81;4237325;27;20382;-71
2022/08/30 07:35:09;;;;;;;6.38;3.90;;;;;;;13.74;77.34;99115.56;4238117;27;20126;-71
2022/08/30 07:37:10;;;;;;;8.05;3.90;;;;;;;13.87;76.50;99118.03;4238471;27;20045;-71
2022/08/30 07:39:10;;;;;;;6.22;3.63;;;;;;;13.96;76.23;99112.94;4237051;27;20043;-71
2022/08/30 07:41:18;;;;;;;7.50;3.40;;;;;;;14.07;75.02;99122.19;4238241;27;20051;-71
2022/08/30 07:43:18;;;;;;;7.03;4.10;;;;;;;14.16;74.83;99121.84;4237363;27;20043;-71
2022/08/30 07:45:19;;;;;;;7.82;3.65;;;;;;;14.19;74.93;99116.31;4237333;27;20046;-71
2022/08/30 07:47:19;;;;;;;7.10;3.47;;;;;;;14.29;74.15;99120.34;4237673;27;20278;-71
2022/08/30 07:49:20;;;;;;;8.73;3.95;;;;;;;14.43;73.29;99111.28;4237014;27;20043;-71
2022/08/30 07:51:24;;;;;;;6.43;3.33;;;;;;;14.57;71.87;99109.44;4237484;27;20136;-71
2022/08/30 07:53:25;;;;;;;6.40;3.60;;;;;;;14.68;71.47;99119.81;4237536;27;20430;-71
2022/08/30 07:55:25;;;;;;;7.13;3.80;;;;;;;14.76;70.07;99113.09;4237116;27;20091;-71
2022/08/30 07:57:26;;;;;;;8.48;3.70;;;;;;;14.83;70.10;99115.91;4237999;27;20078;-71
2022/08/30 07:59:26;;;;;;;7.53;3.28;;;;;;;14.86;70.16;99107.56;4236890;27;20103;-70
2022/08/30 08:01:27;;;;;;;6.82;2.60;;;;;;;14.92;70.16;99115.56;4237205;27;20501;-71
2022/08/30 08:03:28;;;;;;;5.10;3.72;;;;;;;15.00;70.31;99125.53;4236806;27;20079;-71
2022/08/30 08:05:28;;;;;;;10.68;3.20;;;;;;;15.08;69.57;99125.19;4237500;27;20302;-71
2022/08/30 08:07:30;;;;;;;4.88;3.13;;;;;;;15.21;68.66;99117.25;4237015;27;20039;-71
2022/08/30 08:09:32;;;;;;;4.90;2.97;;;;;;;15.29;68.81;99120.84;4236548;27;20275;-71
2022/08/30 08:11:34;;;;;;;7.03;2.95;;;;;;;15.38;68.27;99118.47;4237482;27;20104;-71
2022/08/30 08:13:35;;;;;;;8.07;3.63;;;;;;;15.44;68.38;99119.69;4237425;27;20057;-71
2022/08/30 08:15:36;;;;;;;6.03;3.05;;;;;;;15.57;68.33;99125.72;4237099;27;20043;-71
2022/08/30 08:17:36;;;;;;;6.13;3.20;;;;;;;15.66;67.68;99113.00;4236794;27;20539;-71
2022/08/30 08:19:36;;;;;;;7.57;3.25;;;;;;;15.74;67.87;99111.03;4236787;27;20364;-71
2022/08/30 08:21:37;;;;;;;7.93;3.55;;;;;;;15.97;66.57;99107.81;4237010;27;20043;-71
2022/08/30 08:23:38;;;;;;;11.30;3.65;;;;;;;16.08;65.19;99111.41;4236754;27;20047;-71
2022/08/30 08:25:40;;;;;;;6.32;3.15;;;;;;;16.14;65.44;99111.81;4237229;27;20039;-71
2022/08/30 08:27:41;;;;;;;10.23;3.22;;;;;;;16.18;64.80;99112.59;4237643;27;20088;-71
2022/08/30 08:29:41;;;;;;;8.55;3.08;;;;;;;16.24;64.50;99111.81;4236210;27;20055;-71
2022/08/30 08:31:42;;;;;;;7.43;3.33;;;;;;;16.35;65.96;99111.78;4236514;27;20506;-71
2022/08/30 08:33:43;;;;;;;8.73;3.53;;;;;;;16.44;65.32;99109.38;4236930;27;20145;-71
2022/08/30 08:35:43;;;;;;;5.80;2.90;;;;;;;16.55;65.26;99115.75;4236711;27;20043;-71
2022/08/30 08:37:44;;;;;;;8.48;3.10;;;;;;;16.65;64.33;99113.31;4236684;27;20043;-71
2022/08/30 08:39:44;;;;;;;6.68;2.90;;;;;;;16.76;64.23;99111.31;4235996;27;20035;-71
2022/08/30 08:41:57;;;;;;;4.13;3.10;;;;;;;16.82;63.20;99115.31;4237171;27;20057;-71
2022/08/30 08:43:58;;;;;;;5.97;3.17;;;;;;;16.88;63.42;99113.69;4236091;27;20039;-71
2022/08/30 08:46:01;;;;;;;4.82;2.97;;;;;;;17.00;62.65;99118.03;4236499;27;20062;-71
2022/08/30 08:48:10;;;;;;;6.30;2.67;;;;;;;17.09;62.83;99113.59;4236237;27;20505;-71
2022/08/30 08:50:16;;;;;;;6.60;3.15;;;;;;;17.22;62.82;99113.94;4236139;27;20024;-71
2022/08/30 08:54:50;;;;;;;5.85;2.80;;;;;;;17.41;61.89;99113.41;4236505;27;20051;-72
2022/08/30 08:56:50;;;;;;;7.15;3.15;;;;;;;17.57;61.53;99112.91;4236395;27;20067;-72
2022/08/30 08:58:54;;;;;;;5.57;3.03;;;;;;;17.69;61.42;99112.44;4236081;27;20123;-72
2022/08/30 09:00:56;;;;;;;5.10;3.05;;;;;;;17.87;61.30;99117.94;4235811;27;20058;-72
2022/08/30 09:02:59;;;;;;;7.05;3.47;;;;;;;17.99;60.13;99110.25;4236874;27;20713;-72
2022/08/30 09:05:01;;;;;;;5.60;3.40;;;;;;;18.12;60.26;99106.53;4236660;28;20375;-71
2022/08/30 09:07:18;;;;;;;6.72;3.28;;;;;;;18.22;59.01;99114.03;4236354;28;20425;-71
2022/08/30 09:09:28;;;;;;;7.60;4.18;;;;;;;18.33;59.92;99113.16;4235801;28;20040;-71
2022/08/30 09:11:31;;;;;;;6.25;3.00;;;;;;;18.36;59.66;99107.50;4236430;28;20186;-72
2022/08/30 09:13:32;;;;;;;6.20;3.33;;;;;;;18.32;58.86;99111.56;4236741;28;20070;-72
2022/08/30 09:15:33;;;;;;;5.18;3.00;;;;;;;18.39;60.28;99112.28;4236219;28;20040;-72
2022/08/30 09:17:55;;;;;;;6.30;3.05;;;;;;;18.53;59.65;99103.75;4236102;28;20070;-72
2022/08/30 09:19:55;;;;;;;8.50;3.58;;;;;;;18.72;59.65;99110.75;4235309;28;20100;-72
2022/08/30 09:22:01;;;;;;;5.90;2.97;;;;;;;18.82;57.95;99103.44;4236563;28;20217;-72
2022/08/30 09:24:03;;;;;;;7.53;3.20;;;;;;;18.91;58.06;99108.53;4235848;28;20038;-72
2022/08/30 09:26:08;;;;;;;5.38;2.83;;;;;;;18.98;57.77;99100.84;4236133;28;20131;-72
2022/08/30 09:28:11;;;;;;;8.90;3.40;;;;;;;19.06;58.14;99102.34;4236219;28;20621;-72
2022/08/30 09:30:30;;;;;;;7.60;3.47;;;;;;;19.15;57.24;99093.41;4235250;28;20027;-72
2022/08/30 09:32:38;;;;;;;9.10;3.90;;;;;;;19.17;58.22;99087.38;4236443;27;20379;-71
2022/08/30 09:34:42;;;;;;;10.23;3.42;;;;;;;19.27;58.34;99084.41;4239299;27;20066;-72
2022/08/30 09:36:50;;;;;;;9.30;3.30;;;;;;;19.39;57.53;99094.28;4240380;27;20066;-72